»·PEaware :: SWA1419 KLAS-KPHX

SWA1419 :: KLAS-KPHX

FLIGHT INFORMATION

Flight Status: Arrived
Operator:
Southwest Airlines
More flights by this operator :: More flights under this callsign
Pilot: Cody B. (17747)
Aircraft: BOEING 737-800
(B738)
More flights by this aircraft type
Origin: KLAS McCarran Intl
United States
Destination: KPHX Phoenix Sky Harbor Intl
United States
More flights between these airports :: More routes between these airports
Route: PRFUM4 PRFUM WOTRO BRUSR1
File this flight plan on PilotEdge
Remarks:
Altitude:
(Current/Filed)
29,000ft
Speed:
(Current/Filed)
435kts
Departed: 22-Jun-18 01:47 PM
Arrived: 22-Jun-18 02:40 PM
Distance/Time
Traveled:
222nm/0:52
Distance/Time
To Go:
Arrived

Flight Plot

Page will automatically refresh every two minutes.

Flight plan parsing failed; only flown route is shown


Map Options




Map Legend


Flown Route
Filed Route
Departure Airport
Arrival Airport
Navaid (VOR, NDB)
Fix

Horizontal Profiles

Position Reports

Time Latitude Longitude Heading Altitude Ground
Speed
22-Jun-18 12:19 36.079923 -115.147124 58 2096ft 0kts
22-Jun-18 12:20 36.079923 -115.147124 58 2096ft 0kts
22-Jun-18 12:21 36.079923 -115.147123 58 2096ft 0kts
22-Jun-18 12:22 36.079923 -115.147123 58 2096ft 0kts
22-Jun-18 12:23 36.079923 -115.147123 58 2096ft 0kts
22-Jun-18 12:24 36.079923 -115.147123 58 2096ft 0kts
22-Jun-18 12:25 36.079923 -115.147123 58 2096ft 0kts
22-Jun-18 12:26 36.079923 -115.147123 58 2096ft 0kts
22-Jun-18 12:27 36.079923 -115.147123 58 2096ft 0kts
22-Jun-18 12:28 36.079923 -115.147123 58 2096ft 0kts
22-Jun-18 12:29 36.079923 -115.147123 58 2096ft 0kts
22-Jun-18 12:30 36.079923 -115.147123 58 2096ft 0kts
22-Jun-18 12:31 36.079923 -115.147123 58 2096ft 0kts
22-Jun-18 12:32 36.079923 -115.147123 58 2096ft 0kts
22-Jun-18 12:33 36.079923 -115.147123 58 2096ft 0kts
22-Jun-18 12:34 36.079923 -115.147123 58 2096ft 0kts
22-Jun-18 12:35 36.079923 -115.147123 58 2096ft 0kts
22-Jun-18 12:36 36.079923 -115.147123 58 2096ft 0kts
22-Jun-18 12:37 36.079923 -115.147123 58 2096ft 0kts
22-Jun-18 12:38 36.079923 -115.147123 58 2096ft 0kts
22-Jun-18 12:39 36.079923 -115.147123 58 2096ft 0kts
22-Jun-18 12:40 36.079923 -115.147123 58 2096ft 0kts
22-Jun-18 12:41 36.079923 -115.147123 58 2096ft 0kts
22-Jun-18 12:42 36.079923 -115.147123 58 2096ft 0kts
22-Jun-18 12:43 36.079923 -115.147123 58 2096ft 0kts
22-Jun-18 12:44 36.079923 -115.147123 58 2096ft 0kts
22-Jun-18 12:45 36.079923 -115.147123 58 2096ft 0kts
22-Jun-18 12:46 36.079923 -115.147123 58 2096ft 0kts
22-Jun-18 12:47 36.079923 -115.147123 58 2096ft 0kts
22-Jun-18 12:48 36.079923 -115.147123 58 2096ft 0kts
22-Jun-18 12:49 36.079923 -115.147123 58 2096ft 0kts
22-Jun-18 12:50 36.079923 -115.147123 58 2096ft 0kts
22-Jun-18 12:51 36.079923 -115.147123 58 2096ft 0kts
22-Jun-18 12:52 36.079923 -115.147123 58 2096ft 0kts
22-Jun-18 12:53 36.079923 -115.147123 58 2096ft 0kts
22-Jun-18 12:54 36.079923 -115.147123 58 2096ft 0kts
22-Jun-18 12:55 36.079923 -115.147123 58 2096ft 0kts
22-Jun-18 12:56 36.079923 -115.147123 58 2096ft 0kts
22-Jun-18 12:57 36.079923 -115.147123 58 2096ft 0kts
22-Jun-18 12:58 36.079923 -115.147123 58 2096ft 0kts
22-Jun-18 12:59 36.079923 -115.147123 58 2096ft 0kts
22-Jun-18 13:00 36.079923 -115.147123 58 2096ft 0kts
22-Jun-18 13:01 36.079923 -115.147123 58 2096ft 0kts
22-Jun-18 13:02 36.079923 -115.147123 58 2096ft 0kts
22-Jun-18 13:03 36.079923 -115.147123 58 2096ft 0kts
22-Jun-18 13:04 36.079923 -115.147123 58 2096ft 0kts
22-Jun-18 13:05 36.079923 -115.147123 58 2096ft 0kts
22-Jun-18 13:06 36.079923 -115.147123 58 2096ft 0kts
22-Jun-18 13:07 36.079923 -115.147123 58 2096ft 0kts
22-Jun-18 13:08 36.079923 -115.147123 58 2096ft 0kts
22-Jun-18 13:09 36.079923 -115.147123 58 2096ft 0kts
22-Jun-18 13:10 36.079923 -115.147123 58 2096ft 0kts
22-Jun-18 13:11 36.079923 -115.147123 58 2096ft 0kts
22-Jun-18 13:12 36.079923 -115.147123 58 2096ft 0kts
22-Jun-18 13:13 36.079923 -115.147123 58 2096ft 0kts
22-Jun-18 13:14 36.079923 -115.147123 58 2096ft 0kts
22-Jun-18 13:15 36.079923 -115.147123 58 2096ft 0kts
22-Jun-18 13:16 36.079923 -115.147123 58 2096ft 0kts
22-Jun-18 13:17 36.079923 -115.147123 58 2096ft 0kts
22-Jun-18 13:18 36.079923 -115.147123 58 2096ft 0kts
22-Jun-18 13:19 36.079923 -115.147123 58 2096ft 0kts
22-Jun-18 13:20 36.079923 -115.147123 58 2096ft 0kts
22-Jun-18 13:21 36.079923 -115.147123 58 2096ft 0kts
22-Jun-18 13:22 36.079923 -115.147123 58 2096ft 0kts
22-Jun-18 13:23 36.079923 -115.147123 58 2096ft 0kts
22-Jun-18 13:24 36.079923 -115.147123 58 2096ft 0kts
22-Jun-18 13:25 36.079923 -115.147123 58 2096ft 0kts
22-Jun-18 13:26 36.079923 -115.147123 58 2096ft 0kts
22-Jun-18 13:27 36.079923 -115.147123 58 2096ft 0kts
22-Jun-18 13:28 36.079923 -115.147123 58 2096ft 0kts
22-Jun-18 13:29 36.079923 -115.147123 58 2096ft 0kts
22-Jun-18 13:30 36.079713 -115.147402 63 2098ft 2kts
22-Jun-18 13:31 36.079890 -115.147899 152 2099ft 1kts
22-Jun-18 13:32 36.079921 -115.147918 154 2099ft 0kts
22-Jun-18 13:33 36.079920 -115.147917 154 2099ft 0kts
22-Jun-18 13:34 36.079744 -115.147798 151 2100ft 2kts
22-Jun-18 13:35 36.079221 -115.147478 154 2100ft 0kts
22-Jun-18 13:36 36.079221 -115.147477 154 2100ft 0kts
22-Jun-18 13:37 36.078658 -115.147052 131 2101ft 6kts
22-Jun-18 13:38 36.078245 -115.141981 90 2085ft 18kts
22-Jun-18 13:39 36.078241 -115.135502 90 2066ft 20kts
22-Jun-18 13:40 36.078261 -115.128702 90 2046ft 19kts
22-Jun-18 13:41 36.078264 -115.123102 91 2035ft 0kts
22-Jun-18 13:42 36.077823 -115.122072 129 2036ft 5kts
22-Jun-18 13:43 36.077324 -115.121414 163 2037ft 0kts
22-Jun-18 13:44 36.077324 -115.121414 163 2037ft 0kts
22-Jun-18 13:45 36.076975 -115.121334 175 2037ft 4kts
22-Jun-18 13:46 36.076407 -115.121798 264 2038ft 5kts
22-Jun-18 13:47 36.076372 -115.135797 270 2068ft 123kts
22-Jun-18 13:48 36.076707 -115.197286 272 3319ft 194kts
22-Jun-18 13:49 36.053674 -115.268385 210 5168ft 277kts
22-Jun-18 13:50 35.980062 -115.298714 192 7016ft 280kts
22-Jun-18 13:51 35.904283 -115.276955 164 9338ft 284kts
22-Jun-18 13:52 35.850339 -115.202774 106 11365ft 337kts
22-Jun-18 13:53 35.823490 -115.088971 104 14180ft 354kts
22-Jun-18 13:54 35.826885 -114.967197 81 16658ft 367kts
22-Jun-18 13:55 35.837196 -114.839923 81 18854ft 384kts
22-Jun-18 13:56 35.847331 -114.708911 82 18905ft 389kts
22-Jun-18 13:57 35.839352 -114.576928 113 21103ft 403kts
22-Jun-18 13:58 35.780061 -114.457419 122 22971ft 416kts
22-Jun-18 13:59 35.716578 -114.337204 123 24783ft 424kts
22-Jun-18 14:00 35.651327 -114.214385 123 26232ft 436kts
22-Jun-18 14:01 35.584575 -114.089254 123 27685ft 443kts
22-Jun-18 14:02 35.516230 -113.961768 123 28959ft 452kts
22-Jun-18 14:03 35.444739 -113.829061 123 28983ft 488kts
22-Jun-18 14:04 35.368762 -113.688648 123 28976ft 498kts
22-Jun-18 14:05 35.292320 -113.547890 123 28976ft 497kts
22-Jun-18 14:06 35.217373 -113.412105 124 28973ft 495kts
22-Jun-18 14:07 35.141446 -113.272684 124 28973ft 496kts
22-Jun-18 14:08 35.064971 -113.132429 124 28974ft 497kts
22-Jun-18 14:09 34.988327 -112.993548 124 29093ft 497kts
22-Jun-18 14:10 34.910394 -112.855279 124 29095ft 495kts
22-Jun-18 14:11 34.834370 -112.719235 124 29096ft 497kts
22-Jun-18 14:12 34.757105 -112.579607 124 29088ft 496kts
22-Jun-18 14:13 34.678779 -112.443616 138 29069ft 492kts
22-Jun-18 14:14 34.569427 -112.347086 143 27754ft 485kts
22-Jun-18 14:15 34.465988 -112.248304 148 25046ft 468kts
22-Jun-18 14:16 34.347415 -112.204400 171 22468ft 428kts
22-Jun-18 14:17 34.237867 -112.176003 170 20218ft 385kts
22-Jun-18 14:18 34.137733 -112.150069 170 18131ft 354kts
22-Jun-18 14:19 34.055618 -112.096594 136 16501ft 337kts
22-Jun-18 14:20 33.989887 -112.015657 135 15427ft 339kts
22-Jun-18 14:21 33.924622 -111.935030 135 14354ft 333kts
22-Jun-18 14:22 33.860923 -111.856322 135 13299ft 329kts
22-Jun-18 14:23 33.781193 -111.820092 180 12423ft 319kts
22-Jun-18 14:24 33.694261 -111.816452 180 11115ft 312kts
22-Jun-18 14:25 33.608267 -111.813282 180 9804ft 308kts
22-Jun-18 14:26 33.524782 -111.810661 180 8264ft 307kts
22-Jun-18 14:27 33.444102 -111.811348 206 6453ft 289kts
22-Jun-18 14:28 33.441393 -111.890733 279 3898ft 270kts
22-Jun-18 14:29 33.440710 -111.968956 269 1737ft 194kts
22-Jun-18 14:30 33.445213 -112.039918 300 3082ft 250kts
22-Jun-18 14:31 33.503383 -112.078014 357 5710ft 250kts
22-Jun-18 14:32 33.534631 -112.012545 89 5993ft 270kts
22-Jun-18 14:33 33.532209 -111.923995 90 5772ft 262kts
22-Jun-18 14:34 33.529112 -111.836654 90 4421ft 257kts
22-Jun-18 14:35 33.489193 -111.778609 150 3570ft 222kts
22-Jun-18 14:36 33.444086 -111.802742 242 3361ft 200kts
22-Jun-18 14:37 33.440855 -111.866525 273 3024ft 192kts
22-Jun-18 14:38 33.440313 -111.922570 277 2235ft 145kts
22-Jun-18 14:39 33.440802 -111.971583 268 1524ft 144kts
22-Jun-18 14:40 33.440832 -112.005872 270 1130ft 16kts
22-Jun-18 14:41 33.439745 -112.007325 181 1130ft 0kts
22-Jun-18 14:42 33.439745 -112.007325 181 1130ft 0kts
22-Jun-18 14:43 33.439745 -112.007325 181 1130ft 0kts
22-Jun-18 14:44 33.439640 -112.007167 83 1130ft 0kts
22-Jun-18 14:45 33.439755 -112.006113 88 1130ft 7kts
22-Jun-18 14:46 33.439472 -112.003860 153 1130ft 5kts
22-Jun-18 14:47 33.437342 -112.003786 180 1130ft 11kts
22-Jun-18 14:48 33.433189 -112.003792 168 1126ft 9kts
22-Jun-18 14:49 33.432867 -112.001304 89 1125ft 7kts
22-Jun-18 14:50 33.433077 -111.999408 356 1125ft 2kts
22-Jun-18 14:51 33.433490 -111.999429 0 1125ft 0kts
22-Jun-18 14:52 33.433490 -111.999429 0 1125ft 0kts
22-Jun-18 14:53 33.433490 -111.999429 0 1125ft 0kts

Navigation Log

Ident Type
Flight plan parsing failed, navigation log unavailable